createdAt,value
2023-01-26T06:53:59.149Z,1004.21
2023-01-26T06:55:59.112Z,1004.28
2023-01-26T06:57:59.098Z,1004.32
2023-01-26T07:02:59.039Z,1004.39
2023-01-26T08:39:58.093Z,1005.06
2023-01-26T10:04:57.238Z,1005.04
2023-01-26T10:05:57.229Z,1005.05
2023-01-26T10:06:57.221Z,1005.04
2023-01-26T10:07:57.204Z,1005.02
2023-01-26T10:08:57.308Z,1004.97
2023-01-26T10:09:57.191Z,1004.97
2023-01-26T10:10:57.182Z,1004.96
2023-01-26T10:11:57.170Z,1004.98
2023-01-26T10:12:57.158Z,1004.98
2023-01-26T10:13:57.273Z,1004.92
2023-01-26T10:14:57.621Z,1004.85
2023-01-26T10:15:57.210Z,1004.85
2023-01-26T10:16:57.121Z,1004.87
2023-01-26T10:17:57.115Z,1004.90
2023-01-26T10:18:57.107Z,1004.85
2023-01-26T10:20:29.849Z,1004.82
2023-01-26T10:21:30.033Z,1004.78
2023-01-26T10:22:29.812Z,1004.75
2023-01-26T10:23:29.798Z,1004.74
2023-01-26T10:24:29.790Z,1004.67
2023-01-26T10:25:29.786Z,1004.77
2023-01-26T10:26:29.768Z,1004.78
2023-01-26T10:27:29.785Z,1004.73
2023-01-26T10:28:29.753Z,1004.76
2023-01-26T10:29:29.776Z,1004.75
2023-01-26T10:30:29.861Z,1004.73
2023-01-26T10:31:29.778Z,1004.73
2023-01-26T10:32:29.702Z,1004.72
2023-01-26T10:33:29.696Z,1004.68
2023-01-26T10:34:29.700Z,1004.65
2023-01-26T10:35:29.683Z,1004.67
2023-01-26T10:36:29.675Z,1004.65
2023-01-26T10:37:29.652Z,1004.62
2023-01-26T10:38:29.649Z,1004.62
2023-01-26T10:39:29.647Z,1004.59
2023-01-26T10:40:29.679Z,1004.60
2023-01-26T10:41:29.615Z,1004.60
2023-01-26T10:42:29.607Z,1004.58
2023-01-26T10:43:35.611Z,1004.58
2023-01-26T10:44:29.577Z,1004.56
2023-01-26T10:45:29.614Z,1004.56
2023-01-26T10:46:29.620Z,1004.55
2023-01-26T10:47:29.547Z,1004.56
2023-01-26T10:48:29.548Z,1004.54
2023-01-26T10:49:29.526Z,1004.52
2023-01-26T10:50:29.541Z,1004.52
2023-01-26T10:51:29.521Z,1004.46
2023-01-26T10:52:35.509Z,1004.45
2023-01-26T10:53:29.541Z,1004.42
2023-01-26T10:54:35.498Z,1004.47
2023-01-26T10:55:29.679Z,1004.43
2023-01-26T10:56:29.459Z,1004.42
2023-01-26T10:57:29.472Z,1004.49
2023-01-26T10:58:29.448Z,1004.52
2023-01-26T10:59:29.424Z,1004.44
2023-01-26T11:00:29.420Z,1004.46
2023-01-26T11:01:29.467Z,1004.48
2023-01-26T11:02:29.504Z,1004.49
2023-01-26T11:03:29.485Z,1004.45
2023-01-26T11:04:29.376Z,1004.42
2023-01-26T11:05:29.572Z,1004.37
2023-01-26T11:06:29.400Z,1004.40
2023-01-26T11:07:29.343Z,1004.41
2023-01-26T11:08:29.453Z,1004.37
2023-01-26T11:09:29.322Z,1004.40
2023-01-26T11:10:29.324Z,1004.40
2023-01-26T11:11:29.316Z,1004.38
2023-01-26T11:12:29.291Z,1004.37
2023-01-26T11:13:29.497Z,1004.35
2023-01-26T11:14:29.268Z,1004.39
2023-01-26T11:15:29.274Z,1004.35
2023-01-26T11:16:29.314Z,1004.37
2023-01-26T11:17:29.267Z,1004.40
2023-01-26T11:18:29.229Z,1004.40
2023-01-26T11:19:29.217Z,1004.33
2023-01-26T11:20:29.218Z,1004.32
2023-01-26T11:21:29.196Z,1004.29
2023-01-26T11:22:29.185Z,1004.29
2023-01-26T11:23:29.392Z,1004.26
2023-01-26T11:24:29.264Z,1004.30
2023-01-26T11:25:29.163Z,1004.28
2023-01-26T11:26:29.140Z,1004.24
2023-01-26T11:27:29.136Z,1004.27
2023-01-26T11:28:35.133Z,1004.23
2023-01-26T11:29:29.115Z,1004.23
2023-01-26T11:30:29.107Z,1004.22
2023-01-26T11:31:35.314Z,1004.17
2023-01-26T11:32:29.292Z,1004.15
2023-01-26T11:33:29.104Z,1004.14
2023-01-26T11:34:29.061Z,1004.09
2023-01-26T11:35:29.055Z,1004.10
2023-01-26T11:36:29.149Z,1004.06
2023-01-26T11:37:29.043Z,1004.09
2023-01-26T11:38:29.021Z,1004.10
2023-01-26T11:39:29.415Z,1004.07
2023-01-26T11:40:29.003Z,1004.08
2023-01-26T11:41:28.996Z,1004.03
2023-01-26T11:42:29.134Z,1004.07
2023-01-26T11:43:28.960Z,1004.06
2023-01-26T11:44:28.979Z,1004.03
2023-01-26T11:45:29.020Z,1004.06
2023-01-26T11:46:28.948Z,1003.98
2023-01-26T11:47:28.926Z,1004.03
2023-01-26T11:48:28.926Z,1004.04
2023-01-26T11:49:28.925Z,1004.04
2023-01-26T11:50:28.898Z,1004.05
2023-01-26T11:51:28.926Z,1003.98
2023-01-26T11:52:28.982Z,1004.00
2023-01-26T11:53:28.893Z,1003.99
2023-01-26T11:54:28.857Z,1003.98
2023-01-26T11:55:29.045Z,1004.02
2023-01-26T11:56:28.842Z,1003.92
2023-01-26T11:57:28.821Z,1003.90
2023-01-26T11:58:28.824Z,1003.83
2023-01-26T11:59:28.798Z,1003.78
2023-01-26T12:00:30.831Z,1003.78
2023-01-26T12:01:28.853Z,1003.78
2023-01-26T12:02:28.818Z,1003.77
2023-01-26T12:03:28.830Z,1003.73
2023-01-26T12:04:34.878Z,1003.77
2023-01-26T12:05:28.742Z,1003.80
2023-01-26T12:06:28.751Z,1003.72
2023-01-26T12:07:28.722Z,1003.69
2023-01-26T12:08:28.722Z,1003.72
2023-01-26T12:09:28.702Z,1003.65
2023-01-26T12:10:28.698Z,1003.67
2023-01-26T12:11:34.677Z,1003.71
2023-01-26T12:12:28.764Z,1003.67
2023-01-26T12:13:28.659Z,1003.70
2023-01-26T12:14:28.647Z,1003.68
2023-01-26T12:15:28.638Z,1003.66
2023-01-26T12:16:28.647Z,1003.64
2023-01-26T12:17:28.717Z,1003.64
2023-01-26T12:18:38.249Z,1003.66
2023-01-26T12:19:29.845Z,1003.64
2023-01-26T12:20:28.607Z,1003.61
2023-01-26T12:21:28.600Z,1003.61
2023-01-26T12:22:28.575Z,1003.57
2023-01-26T12:23:28.655Z,1003.55
2023-01-26T12:25:08.317Z,1003.58
2023-01-26T12:25:36.099Z,1003.50
2023-01-26T12:26:28.525Z,1003.50
2023-01-26T12:27:28.512Z,1003.48
2023-01-26T12:28:28.553Z,1003.46
2023-01-26T12:29:34.496Z,1003.48
2023-01-26T12:30:34.633Z,1003.49
2023-01-26T12:31:28.571Z,1003.51
2023-01-26T12:32:28.475Z,1003.48
2023-01-26T12:33:28.458Z,1003.48
2023-01-26T12:34:28.446Z,1003.48
2023-01-26T12:35:28.434Z,1003.46
2023-01-26T12:36:28.440Z,1003.41
2023-01-26T12:37:28.411Z,1003.38
2023-01-26T12:38:34.414Z,1003.38
2023-01-26T12:39:34.398Z,1003.35
2023-01-26T12:40:28.380Z,1003.33
2023-01-26T12:41:28.383Z,1003.31
2023-01-26T12:42:28.352Z,1003.32
2023-01-26T12:43:28.347Z,1003.29
2023-01-26T12:44:28.341Z,1003.24
2023-01-26T12:45:28.332Z,1003.25
2023-01-26T12:46:28.583Z,1003.23
2023-01-26T12:47:28.304Z,1003.26
2023-01-26T12:48:28.315Z,1003.26
2023-01-26T12:49:28.311Z,1003.21
2023-01-26T12:50:28.282Z,1003.22
2023-01-26T12:51:28.268Z,1003.18
2023-01-26T12:52:34.293Z,1003.20
2023-01-26T12:54:04.956Z,1003.19
2023-01-26T12:55:04.934Z,1003.20
2023-01-26T12:56:04.928Z,1003.13
2023-01-26T12:57:04.921Z,1003.16
2023-01-26T12:58:04.927Z,1003.19
2023-01-26T12:59:04.896Z,1003.18
2023-01-26T13:00:04.897Z,1003.24
2023-01-26T13:01:05.044Z,1003.20
2023-01-26T13:02:11.094Z,1003.27
2023-01-26T13:03:05.055Z,1003.25
2023-01-26T13:04:04.848Z,1003.24
2023-01-26T13:05:04.839Z,1003.28
2023-01-26T13:06:04.825Z,1003.25
2023-01-26T13:07:04.813Z,1003.26
2023-01-26T13:08:10.842Z,1003.25
2023-01-26T13:09:05.005Z,1003.24
2023-01-26T13:10:04.793Z,1003.17
2023-01-26T13:11:10.793Z,1003.21
2023-01-26T13:12:04.809Z,1003.18
2023-01-26T13:13:04.749Z,1003.17
2023-01-26T13:14:49.522Z,1003.20
2023-01-26T13:15:49.506Z,1003.20
2023-01-26T13:16:49.495Z,1003.23
2023-01-26T13:17:49.511Z,1003.18
2023-01-26T13:18:49.485Z,1003.21
2023-01-26T13:19:49.469Z,1003.20
2023-01-26T13:20:55.467Z,1003.23
2023-01-26T13:21:49.452Z,1003.16
2023-01-26T13:22:49.453Z,1003.18
2023-01-26T13:23:51.525Z,1003.19
2023-01-26T13:24:49.420Z,1003.21
2023-01-26T13:26:26.119Z,1003.24
2023-01-26T13:27:26.083Z,1003.17
2023-01-26T13:28:26.070Z,1003.20
2023-01-26T13:29:26.263Z,1003.18
2023-01-26T13:30:26.146Z,1003.25
2023-01-26T13:31:32.098Z,1003.23
2023-01-26T13:32:32.050Z,1003.30
2023-01-26T13:33:26.061Z,1003.32
2023-01-26T13:34:32.021Z,1003.30
2023-01-26T13:35:26.001Z,1003.31
2023-01-26T13:36:26.199Z,1003.28
2023-01-26T13:37:26.186Z,1003.25
2023-01-26T13:38:28.182Z,1003.25
2023-01-26T13:39:25.990Z,1003.26
2023-01-26T13:40:25.956Z,1003.24
2023-01-26T13:41:25.962Z,1003.26
2023-01-26T13:42:32.138Z,1003.27
2023-01-26T13:43:27.701Z,1003.25
2023-01-26T13:44:25.905Z,1003.26
2023-01-26T13:45:25.896Z,1003.30
2023-01-26T13:46:25.961Z,1003.27
2023-01-26T13:47:25.979Z,1003.32
2023-01-26T13:49:06.638Z,1003.35
2023-01-26T13:50:06.608Z,1003.32
2023-01-26T13:51:06.609Z,1003.34
2023-01-26T13:52:06.596Z,1003.39
2023-01-26T13:53:06.590Z,1003.37
2023-01-26T13:54:06.602Z,1003.40
2023-01-26T13:55:06.593Z,1003.32
2023-01-26T13:56:06.764Z,1003.39
2023-01-26T13:57:06.549Z,1003.36
2023-01-26T13:58:06.545Z,1003.35
2023-01-26T13:59:06.542Z,1003.35
2023-01-26T14:00:06.518Z,1003.37
2023-01-26T14:01:06.507Z,1003.33
2023-01-26T14:02:06.560Z,1003.29
2023-01-26T14:03:06.566Z,1003.31
2023-01-26T14:04:12.479Z,1003.30
2023-01-26T14:05:06.459Z,1003.28
2023-01-26T14:06:06.455Z,1003.28
2023-01-26T14:07:06.465Z,1003.30
2023-01-26T14:08:06.630Z,1003.24
2023-01-26T14:09:12.431Z,1003.25
2023-01-26T14:10:12.774Z,1003.31
2023-01-26T14:11:06.408Z,1003.31
2023-01-26T14:12:06.411Z,1003.34
2023-01-26T14:13:12.386Z,1003.39
2023-01-26T14:14:06.365Z,1003.39
2023-01-26T14:15:06.358Z,1003.35
2023-01-26T14:16:06.496Z,1003.33
2023-01-26T14:17:06.341Z,1003.32
2023-01-26T14:18:06.318Z,1003.33
2023-01-26T14:19:06.320Z,1003.33
2023-01-26T14:20:06.298Z,1003.33
2023-01-26T14:21:06.342Z,1003.35
2023-01-26T14:22:06.275Z,1003.32
2023-01-26T14:23:06.291Z,1003.33
2023-01-26T14:24:06.293Z,1003.35
2023-01-26T14:25:06.266Z,1003.35
2023-01-26T14:26:06.268Z,1003.34
2023-01-26T14:27:06.237Z,1003.34
2023-01-26T14:28:06.234Z,1003.34
2023-01-26T14:29:06.214Z,1003.29
2023-01-26T14:30:06.200Z,1003.30
2023-01-26T14:31:08.356Z,1003.29
2023-01-26T14:32:06.337Z,1003.26
2023-01-26T14:33:06.188Z,1003.28
2023-01-26T14:34:06.150Z,1003.30
2023-01-26T14:35:12.414Z,1003.28
2023-01-26T14:36:06.143Z,1003.25
2023-01-26T14:37:06.134Z,1003.27
2023-01-26T14:38:06.136Z,1003.30
2023-01-26T14:39:06.312Z,1003.28
2023-01-26T14:40:06.093Z,1003.29
2023-01-26T14:41:12.124Z,1003.31
2023-01-26T14:42:06.082Z,1003.32
2023-01-26T14:43:06.374Z,1003.32
2023-01-26T14:44:06.256Z,1003.32
2023-01-26T14:45:06.048Z,1003.33
2023-01-26T14:46:06.034Z,1003.28
2023-01-26T14:47:06.028Z,1003.30
2023-01-26T14:48:06.008Z,1003.30
2023-01-26T14:49:07.457Z,1003.36
2023-01-26T14:50:05.991Z,1003.30
2023-01-26T14:51:05.987Z,1003.34
2023-01-26T14:52:05.987Z,1003.30
2023-01-26T14:53:05.966Z,1003.32
2023-01-26T14:54:06.257Z,1003.29
2023-01-26T14:55:05.960Z,1003.29
2023-01-26T14:56:05.929Z,1003.30
2023-01-26T14:57:07.603Z,1003.28
2023-01-26T14:58:05.904Z,1003.27
2023-01-26T14:59:05.956Z,1003.36
2023-01-26T15:00:12.270Z,1003.38
2023-01-26T15:01:06.132Z,1003.34
2023-01-26T15:02:11.918Z,1003.36
2023-01-26T15:03:05.857Z,1003.31
2023-01-26T15:04:05.921Z,1003.40
2023-01-26T15:05:05.843Z,1003.39
2023-01-26T15:06:05.837Z,1003.37
2023-01-26T15:07:05.820Z,1003.32
2023-01-26T15:08:05.813Z,1003.26
2023-01-26T15:09:11.819Z,1003.30
2023-01-26T15:10:05.791Z,1003.30
2023-01-26T15:11:05.769Z,1003.32
2023-01-26T15:12:05.755Z,1003.36
2023-01-26T15:13:05.776Z,1003.35
2023-01-26T15:14:11.847Z,1003.34
2023-01-26T15:15:05.750Z,1003.36
2023-01-26T15:16:05.776Z,1003.37
2023-01-26T15:17:05.725Z,1003.41
2023-01-26T15:18:05.711Z,1003.42
2023-01-26T15:19:05.895Z,1003.37
2023-01-26T15:20:05.670Z,1003.38
2023-01-26T15:21:05.725Z,1003.41
2023-01-26T15:22:05.860Z,1003.35
2023-01-26T15:23:05.646Z,1003.40
2023-01-26T15:24:05.715Z,1003.40
2023-01-26T15:25:12.210Z,1003.42
2023-01-26T15:26:05.613Z,1003.34
2023-01-26T15:27:05.606Z,1003.37
2023-01-26T15:28:05.604Z,1003.36
2023-01-26T15:29:05.620Z,1003.32
2023-01-26T15:30:05.584Z,1003.30
2023-01-26T15:31:05.730Z,1003.33
2023-01-26T15:32:05.551Z,1003.30
2023-01-26T15:33:05.743Z,1003.31
2023-01-26T15:34:05.536Z,1003.32
2023-01-26T15:35:05.532Z,1003.35
2023-01-26T15:36:11.541Z,1003.33
2023-01-26T15:37:05.501Z,1003.35
2023-01-26T15:38:05.706Z,1003.32
2023-01-26T15:39:05.490Z,1003.34
2023-01-26T15:40:07.731Z,1003.35
2023-01-26T15:41:42.186Z,1003.37
2023-01-26T15:42:48.375Z,1003.37
2023-01-26T15:43:42.138Z,1003.39
2023-01-26T15:44:42.156Z,1003.42
2023-01-26T15:45:42.224Z,1003.38
2023-01-26T15:46:42.361Z,1003.44
2023-01-26T15:47:48.121Z,1003.38
2023-01-26T15:48:42.088Z,1003.39
2023-01-26T15:49:42.099Z,1003.38
2023-01-26T15:50:42.078Z,1003.42
2023-01-26T15:51:42.078Z,1003.42
2023-01-26T15:52:42.050Z,1003.48
2023-01-26T15:53:42.046Z,1003.47
2023-01-26T15:54:42.028Z,1003.45
2023-01-26T15:55:42.018Z,1003.46
2023-01-26T15:56:42.124Z,1003.48
2023-01-26T15:57:42.010Z,1003.49
2023-01-26T15:58:41.992Z,1003.44
2023-01-26T15:59:41.994Z,1003.42
2023-01-26T16:00:42.056Z,1003.43
2023-01-26T16:01:41.999Z,1003.43
2023-01-26T16:02:41.950Z,1003.43
2023-01-26T16:03:48.377Z,1003.44
2023-01-26T16:04:41.922Z,1003.40
2023-01-26T16:05:41.926Z,1003.44
2023-01-26T16:06:41.910Z,1003.46
2023-01-26T16:07:41.906Z,1003.43
2023-01-26T16:08:41.885Z,1003.45
2023-01-26T16:09:42.079Z,1003.46
2023-01-26T16:10:41.875Z,1003.46
2023-01-26T16:11:47.868Z,1003.46
2023-01-26T16:12:41.854Z,1003.44
2023-01-26T16:14:02.033Z,1003.47
2023-01-26T16:14:42.880Z,1003.50
2023-01-26T16:15:41.890Z,1003.45
2023-01-26T16:16:41.940Z,1003.46
2023-01-26T16:17:41.806Z,1003.43
2023-01-26T16:18:41.795Z,1003.47
2023-01-26T16:19:41.776Z,1003.53
2023-01-26T16:20:41.788Z,1003.53
2023-01-26T16:21:41.757Z,1003.53
2023-01-26T16:22:41.738Z,1003.58
2023-01-26T16:23:41.826Z,1003.55
2023-01-26T16:24:47.755Z,1003.57
2023-01-26T16:25:41.715Z,1003.59
2023-01-26T16:26:41.721Z,1003.58
2023-01-26T16:27:41.705Z,1003.56
2023-01-26T16:28:41.691Z,1003.56
2023-01-26T16:29:41.715Z,1003.58
2023-01-26T16:30:41.743Z,1003.59
2023-01-26T16:31:41.733Z,1003.63
2023-01-26T16:32:41.660Z,1003.66
2023-01-26T16:33:41.634Z,1003.61
2023-01-26T16:34:41.637Z,1003.60
2023-01-26T16:35:41.621Z,1003.60
2023-01-26T16:36:41.622Z,1003.58
2023-01-26T16:37:47.597Z,1003.62
2023-01-26T16:38:41.593Z,1003.65
2023-01-26T16:39:41.672Z,1003.59
2023-01-26T16:40:41.613Z,1003.63
2023-01-26T16:41:41.572Z,1003.61
2023-01-26T16:42:41.550Z,1003.62
2023-01-26T16:43:41.586Z,1003.62
2023-01-26T16:44:41.601Z,1003.63
2023-01-26T16:45:41.584Z,1003.63
2023-01-26T16:46:41.550Z,1003.59
2023-01-26T16:47:41.538Z,1003.58
2023-01-26T16:48:41.521Z,1003.61
2023-01-26T16:49:41.499Z,1003.59
2023-01-26T16:50:41.679Z,1003.62
2023-01-26T16:51:41.507Z,1003.70
2023-01-26T16:52:41.493Z,1003.65
2023-01-26T16:53:41.498Z,1003.68
2023-01-26T16:54:41.485Z,1003.68
2023-01-26T16:55:41.499Z,1003.65
2023-01-26T16:56:47.471Z,1003.64
2023-01-26T16:57:41.489Z,1003.66
2023-01-26T16:59:18.187Z,1003.66
2023-01-26T17:00:18.391Z,1003.70
2023-01-26T17:01:18.211Z,1003.67
2023-01-26T17:02:18.259Z,1003.66
2023-01-26T17:03:18.167Z,1003.63
2023-01-26T17:04:18.170Z,1003.64
2023-01-26T17:05:18.148Z,1003.60
2023-01-26T17:06:18.137Z,1003.59
2023-01-26T17:07:18.248Z,1003.61
2023-01-26T17:08:18.129Z,1003.59
2023-01-26T17:09:18.098Z,1003.62
2023-01-26T17:10:18.096Z,1003.65
2023-01-26T17:11:18.064Z,1003.64
2023-01-26T17:12:18.066Z,1003.63
2023-01-26T17:13:18.124Z,1003.64
2023-01-26T17:14:24.304Z,1003.66
2023-01-26T17:15:18.056Z,1003.65
2023-01-26T17:16:18.081Z,1003.61
2023-01-26T17:17:18.029Z,1003.55
2023-01-26T17:18:18.021Z,1003.61
2023-01-26T17:19:18.018Z,1003.60
2023-01-26T17:20:19.779Z,1003.60
2023-01-26T17:21:18.003Z,1003.65
2023-01-26T17:22:17.972Z,1003.60
2023-01-26T17:23:17.940Z,1003.62
2023-01-26T17:24:23.993Z,1003.70
2023-01-26T17:25:18.399Z,1003.62
2023-01-26T17:26:17.919Z,1003.68
2023-01-26T17:27:18.106Z,1003.68
2023-01-26T17:28:17.900Z,1003.67
2023-01-26T17:29:17.883Z,1003.74
2023-01-26T17:30:17.932Z,1003.69
2023-01-26T17:31:23.968Z,1003.69
2023-01-26T17:32:17.868Z,1003.72
2023-01-26T17:33:17.861Z,1003.71
2023-01-26T17:34:17.837Z,1003.69
2023-01-26T17:35:23.969Z,1003.69
2023-01-26T17:36:17.828Z,1003.65
2023-01-26T17:37:17.820Z,1003.66
2023-01-26T17:38:17.808Z,1003.66
2023-01-26T17:39:17.821Z,1003.63
2023-01-26T17:40:17.796Z,1003.70
2023-01-26T17:41:23.825Z,1003.65
2023-01-26T17:42:17.781Z,1003.67
2023-01-26T17:43:17.766Z,1003.72
2023-01-26T17:44:23.769Z,1003.70
2023-01-26T17:45:17.731Z,1003.67
2023-01-26T17:46:17.719Z,1003.68
2023-01-26T17:47:17.707Z,1003.69
2023-01-26T17:48:17.704Z,1003.71
2023-01-26T17:49:17.691Z,1003.69
2023-01-26T17:50:17.687Z,1003.73
2023-01-26T17:51:17.799Z,1003.75
2023-01-26T17:52:17.654Z,1003.75
2023-01-26T17:53:17.649Z,1003.77
2023-01-26T17:54:23.661Z,1003.77
2023-01-26T17:55:17.635Z,1003.78
2023-01-26T17:56:17.617Z,1003.84
2023-01-26T17:57:17.660Z,1003.83
2023-01-26T17:58:17.588Z,1003.80
2023-01-26T17:59:17.591Z,1003.85
2023-01-26T18:00:17.589Z,1003.82
2023-01-26T18:01:17.590Z,1003.86
2023-01-26T18:02:17.673Z,1003.82
2023-01-26T18:03:17.538Z,1003.81
2023-01-26T18:04:23.555Z,1003.82
2023-01-26T18:05:17.523Z,1003.81
2023-01-26T18:06:17.506Z,1003.84
2023-01-26T18:07:17.537Z,1003.83
2023-01-26T18:08:23.523Z,1003.78
2023-01-26T18:09:17.475Z,1003.81
2023-01-26T18:10:17.492Z,1003.79
2023-01-26T18:11:17.480Z,1003.80
2023-01-26T18:12:23.473Z,1003.86
2023-01-26T18:13:17.460Z,1003.84
2023-01-26T18:14:17.423Z,1003.82
2023-01-26T18:15:17.428Z,1003.85
2023-01-26T18:16:17.459Z,1003.84
2023-01-26T18:17:17.413Z,1003.82
2023-01-26T18:18:17.387Z,1003.82
2023-01-26T18:19:17.508Z,1003.86
2023-01-26T18:20:17.379Z,1003.86
2023-01-26T18:21:17.388Z,1003.85
2023-01-26T18:22:17.349Z,1003.85
2023-01-26T18:23:17.374Z,1003.84
2023-01-26T18:24:17.378Z,1003.87
2023-01-26T18:25:17.321Z,1003.87
2023-01-26T18:26:17.352Z,1003.89
2023-01-26T18:27:19.379Z,1003.85
2023-01-26T18:28:17.316Z,1003.90
2023-01-26T18:29:17.335Z,1003.88
2023-01-26T18:30:17.290Z,1003.91
2023-01-26T18:31:17.322Z,1003.88
2023-01-26T18:32:23.254Z,1003.89
2023-01-26T18:33:17.258Z,1003.91
2023-01-26T18:34:23.540Z,1003.89
2023-01-26T18:35:17.208Z,1003.94
2023-01-26T18:36:17.221Z,1003.87
2023-01-26T18:37:23.204Z,1003.84
2023-01-26T18:38:17.228Z,1003.86
2023-01-26T18:39:17.202Z,1003.86
2023-01-26T18:40:23.176Z,1003.87
2023-01-26T18:41:23.169Z,1003.82
2023-01-26T18:42:17.150Z,1003.85
2023-01-26T18:43:17.138Z,1003.86
2023-01-26T18:44:17.135Z,1003.88
2023-01-26T18:45:17.130Z,1003.85
2023-01-26T18:46:17.133Z,1003.87
2023-01-26T18:47:17.102Z,1003.90
2023-01-26T18:48:17.103Z,1003.91
2023-01-26T18:49:17.082Z,1003.85
2023-01-26T18:50:17.068Z,1003.85
2023-01-26T18:51:17.157Z,1003.86
2023-01-26T18:52:17.060Z,1003.83
2023-01-26T18:53:17.027Z,1003.88
2023-01-26T18:54:17.069Z,1003.84
2023-01-26T18:55:17.030Z,1003.90
2023-01-26T18:56:23.040Z,1003.90
2023-01-26T18:57:16.996Z,1003.87
2023-01-26T18:58:16.983Z,1003.90
2023-01-26T18:59:16.990Z,1003.86
2023-01-26T19:00:16.963Z,1003.82
2023-01-26T19:01:23.069Z,1003.81
2023-01-26T19:02:17.114Z,1003.82
2023-01-26T19:03:16.928Z,1003.81
2023-01-26T19:04:18.363Z,1003.85
2023-01-26T19:05:16.927Z,1003.78
2023-01-26T19:06:16.910Z,1003.80
2023-01-26T19:07:16.987Z,1003.79
2023-01-26T19:08:16.892Z,1003.78
2023-01-26T19:09:16.892Z,1003.80
2023-01-26T19:10:16.865Z,1003.80
2023-01-26T19:11:16.882Z,1003.79
2023-01-26T19:12:16.847Z,1003.74
2023-01-26T19:13:16.827Z,1003.73
2023-01-26T19:14:17.021Z,1003.70
2023-01-26T19:15:16.815Z,1003.75
2023-01-26T19:16:16.912Z,1003.71
2023-01-26T19:19:06.006Z,1003.71
2023-01-26T19:20:12.157Z,1003.69
2023-01-26T19:21:05.852Z,1003.69
2023-01-26T19:22:11.866Z,1003.69
2023-01-26T19:23:05.971Z,1003.69
2023-01-26T19:24:11.978Z,1003.70
2023-01-26T19:25:05.841Z,1003.70
2023-01-26T19:26:05.866Z,1003.67
2023-01-26T19:27:11.815Z,1003.66
2023-01-26T19:28:05.784Z,1003.60
2023-01-26T19:29:05.783Z,1003.61
2023-01-26T19:30:05.760Z,1003.60
2023-01-26T19:31:06.001Z,1003.58
2023-01-26T19:32:05.867Z,1003.57
2023-01-26T19:33:05.734Z,1003.57
2023-01-26T19:34:11.731Z,1003.59
2023-01-26T19:35:05.708Z,1003.60
2023-01-26T19:36:05.699Z,1003.57
2023-01-26T19:37:05.687Z,1003.56
2023-01-26T19:38:05.683Z,1003.62
2023-01-26T19:39:05.678Z,1003.57
2023-01-26T19:40:05.860Z,1003.57
2023-01-26T19:41:05.844Z,1003.60
2023-01-26T19:42:05.638Z,1003.55
2023-01-26T19:43:11.657Z,1003.59
2023-01-26T19:44:05.615Z,1003.61
2023-01-26T19:45:05.607Z,1003.59
2023-01-26T19:46:05.815Z,1003.58
2023-01-26T19:47:05.587Z,1003.58
2023-01-26T19:48:05.580Z,1003.64
2023-01-26T19:49:11.585Z,1003.66
2023-01-26T19:50:05.756Z,1003.63
2023-01-26T19:51:05.654Z,1003.61
2023-01-26T19:52:05.540Z,1003.61
2023-01-26T19:53:07.657Z,1003.55
2023-01-26T19:54:05.516Z,1003.55
2023-01-26T19:55:05.522Z,1003.57
2023-01-26T19:56:05.510Z,1003.60
2023-01-26T19:57:05.485Z,1003.58
2023-01-26T19:58:05.470Z,1003.52
2023-01-26T19:59:05.496Z,1003.55
2023-01-26T20:00:05.476Z,1003.56
2023-01-26T20:01:05.517Z,1003.59
2023-01-26T20:02:11.479Z,1003.59
2023-01-26T20:03:05.425Z,1003.57
2023-01-26T20:04:05.465Z,1003.57
2023-01-26T20:05:05.407Z,1003.54
2023-01-26T20:06:05.396Z,1003.53
2023-01-26T20:07:05.392Z,1003.54
2023-01-26T20:08:05.363Z,1003.50
2023-01-26T20:09:05.369Z,1003.49
2023-01-26T20:10:05.354Z,1003.52
2023-01-26T20:11:05.356Z,1003.48
2023-01-26T20:12:05.332Z,1003.50
2023-01-26T20:13:05.420Z,1003.47
2023-01-26T20:14:05.509Z,1003.52
2023-01-26T20:15:05.325Z,1003.49
2023-01-26T20:16:05.315Z,1003.46
2023-01-26T20:17:05.287Z,1003.48
2023-01-26T20:18:05.382Z,1003.47
2023-01-26T20:19:05.275Z,1003.51
2023-01-26T20:20:11.256Z,1003.45
2023-01-26T20:21:05.244Z,1003.52
2023-01-26T20:22:05.234Z,1003.44
2023-01-26T20:23:05.223Z,1003.40
2023-01-26T20:24:06.567Z,1003.45
2023-01-26T20:25:05.201Z,1003.44
2023-01-26T20:26:05.186Z,1003.45
2023-01-26T20:27:05.183Z,1003.44
2023-01-26T20:28:05.170Z,1003.39
2023-01-26T20:29:05.371Z,1003.42
2023-01-26T20:30:05.155Z,1003.42
2023-01-26T20:31:05.194Z,1003.41
2023-01-26T20:32:05.226Z,1003.39
2023-01-26T20:33:05.126Z,1003.42
2023-01-26T20:34:05.117Z,1003.41
2023-01-26T20:35:05.154Z,1003.42
2023-01-26T20:36:05.083Z,1003.40
2023-01-26T20:37:05.076Z,1003.41
2023-01-26T20:38:05.062Z,1003.39
2023-01-26T20:39:05.085Z,1003.39
2023-01-26T20:40:05.042Z,1003.36
2023-01-26T20:41:05.045Z,1003.34
2023-01-26T20:42:05.033Z,1003.37
2023-01-26T20:43:05.020Z,1003.38
2023-01-26T20:44:05.020Z,1003.34
2023-01-26T20:45:04.997Z,1003.38
2023-01-26T20:46:05.086Z,1003.36
2023-01-26T20:47:05.005Z,1003.34
2023-01-26T20:48:04.975Z,1003.34
2023-01-26T20:49:04.984Z,1003.33
2023-01-26T20:50:04.945Z,1003.33
2023-01-26T20:51:04.936Z,1003.31
2023-01-26T20:52:04.920Z,1003.29
2023-01-26T20:53:04.926Z,1003.34
2023-01-26T20:55:05.107Z,1003.33
2023-01-26T21:29:04.552Z,1003.19
2023-01-26T21:32:04.512Z,1003.18
2023-01-26T21:33:04.509Z,1003.19
2023-01-26T21:34:04.499Z,1003.14
2023-01-26T21:35:04.506Z,1003.16
2023-01-26T21:36:04.478Z,1003.19
2023-01-26T21:37:04.461Z,1003.15
2023-01-26T21:38:04.452Z,1003.14
2023-01-26T21:39:10.451Z,1003.14
2023-01-26T21:40:04.431Z,1003.16
2023-01-26T21:41:04.430Z,1003.15
2023-01-26T21:42:04.411Z,1003.16
2023-01-26T21:43:04.403Z,1003.13
2023-01-26T21:44:04.405Z,1003.13
2023-01-26T21:45:04.489Z,1003.12
2023-01-26T21:46:04.414Z,1003.16
2023-01-26T21:47:04.376Z,1003.15
2023-01-26T21:48:10.358Z,1003.12
2023-01-26T21:49:04.352Z,1003.12
2023-01-26T21:50:04.436Z,1003.12
2023-01-26T21:51:10.564Z,1003.12
2023-01-26T21:52:04.323Z,1003.13
2023-01-26T21:53:04.302Z,1003.10
2023-01-26T21:54:04.295Z,1003.07
2023-01-26T21:55:10.703Z,1003.09
2023-01-26T21:56:04.469Z,1003.06
2023-01-26T21:57:04.261Z,1003.06
2023-01-26T21:58:10.261Z,1003.06
2023-01-26T21:59:04.259Z,1003.04
2023-01-26T22:00:10.405Z,1002.99
2023-01-26T22:01:04.296Z,1003.03
2023-01-26T22:02:04.217Z,1003.03
2023-01-26T22:03:04.202Z,1002.97
2023-01-26T22:04:04.471Z,1002.95
2023-01-26T22:05:04.178Z,1003.03
2023-01-26T22:06:04.492Z,1002.98
2023-01-26T22:07:04.195Z,1002.96
2023-01-26T22:08:04.143Z,1002.97
2023-01-26T22:09:04.136Z,1002.92
2023-01-26T22:10:10.584Z,1002.97
2023-01-26T22:11:04.129Z,1002.90
2023-01-26T22:12:04.221Z,1002.92
2023-01-26T22:13:04.102Z,1002.85
2023-01-26T22:14:04.309Z,1002.87
2023-01-26T22:15:04.076Z,1002.82
2023-01-26T22:16:04.769Z,1002.86
2023-01-26T22:17:04.060Z,1002.85
2023-01-26T22:18:04.104Z,1002.85
2023-01-26T22:19:04.054Z,1002.83
2023-01-26T22:20:04.034Z,1002.89
2023-01-26T22:21:04.025Z,1002.85
2023-01-26T22:22:04.027Z,1002.84
2023-01-26T22:23:04.025Z,1002.86
2023-01-26T22:24:04.027Z,1002.85
2023-01-26T22:25:03.982Z,1002.87
2023-01-26T22:26:03.965Z,1002.89
2023-01-26T22:27:03.973Z,1002.86
2023-01-26T22:28:03.949Z,1002.85
2023-01-26T22:29:03.939Z,1002.85
2023-01-26T22:30:03.928Z,1002.82
2023-01-26T22:31:03.931Z,1002.82
2023-01-26T22:32:04.008Z,1002.81
2023-01-26T22:33:03.896Z,1002.86
2023-01-26T22:34:03.879Z,1002.82
2023-01-26T22:35:04.189Z,1002.81
2023-01-26T22:36:03.860Z,1002.81
2023-01-26T22:37:03.873Z,1002.78
2023-01-26T22:38:03.849Z,1002.76
2023-01-26T22:39:03.903Z,1002.76
2023-01-26T22:40:03.843Z,1002.76
2023-01-26T22:41:03.816Z,1002.82
2023-01-26T22:42:03.808Z,1002.81
2023-01-26T22:43:03.815Z,1002.81
2023-01-26T22:44:03.799Z,1002.82
2023-01-26T22:45:03.784Z,1002.81
2023-01-26T22:46:03.839Z,1002.79
2023-01-26T22:47:03.969Z,1002.82